createdAt,value
2023-02-24T00:00:32.503Z,100265.22
2023-02-24T00:04:39.544Z,100263.59
2023-02-24T00:08:42.252Z,100259.72
2023-02-24T00:12:45.595Z,100254.69
2023-02-24T00:16:47.871Z,100249.50
2023-02-24T00:20:49.557Z,100249.47
2023-02-24T00:24:53.670Z,100244.34
2023-02-24T00:28:56.961Z,100246.00
2023-02-24T00:33:01.221Z,100240.13
2023-02-24T00:37:03.591Z,100231.59
2023-02-24T00:41:12.444Z,100218.91
2023-02-24T00:45:16.648Z,100221.66
2023-02-24T00:49:20.685Z,100220.69
2023-02-24T00:53:22.219Z,100218.13
2023-02-24T00:57:23.747Z,100215.53
2023-02-24T01:01:30.708Z,100210.44
2023-02-24T01:05:36.403Z,100210.28
2023-02-24T01:09:39.506Z,100207.59
2023-02-24T01:13:41.043Z,100212.66
2023-02-24T01:17:42.614Z,100203.16
2023-02-24T01:21:46.149Z,100204.00
2023-02-24T01:25:47.791Z,100189.53
2023-02-24T01:29:49.635Z,100184.31
2023-02-24T01:33:52.096Z,100179.69
2023-02-24T01:37:53.609Z,100180.13
2023-02-24T01:41:55.208Z,100181.00
2023-02-24T01:45:56.840Z,100178.41
2023-02-24T01:49:58.510Z,100176.75
2023-02-24T01:54:01.789Z,100180.09
2023-02-24T01:58:13.347Z,100186.13
2023-02-24T02:02:15.870Z,100179.16
2023-02-24T02:06:17.787Z,100174.06
2023-02-24T02:10:20.357Z,100160.34
2023-02-24T02:14:25.517Z,100164.41
2023-02-24T02:18:47.695Z,100164.41
2023-02-24T02:23:17.622Z,100151.41
2023-02-24T02:27:32.806Z,100153.22
2023-02-24T02:32:10.799Z,100144.56
2023-02-24T02:36:22.672Z,100143.34
2023-02-24T02:40:33.026Z,100136.50
2023-02-24T02:44:40.560Z,100127.97
2023-02-24T02:48:57.569Z,100125.06
2023-02-24T02:53:12.174Z,100124.56
2023-02-24T02:57:23.044Z,100117.13
2023-02-24T03:01:30.620Z,100112.47
2023-02-24T03:05:44.015Z,100119.81
2023-02-24T03:09:51.561Z,100115.81
2023-02-24T03:13:57.094Z,100117.66
2023-02-24T03:18:10.172Z,100106.63
2023-02-24T03:22:21.862Z,100112.50
2023-02-24T03:26:41.681Z,100105.69
2023-02-24T03:30:50.516Z,100108.22
2023-02-24T03:35:16.965Z,100098.69
2023-02-24T03:39:20.424Z,100107.16
2023-02-24T03:43:34.264Z,100108.22
2023-02-24T03:47:37.841Z,100104.94
2023-02-24T03:51:44.724Z,100103.53
2023-02-24T03:56:10.799Z,100099.47
2023-02-24T04:00:33.967Z,100100.53
2023-02-24T04:04:48.306Z,100095.72
2023-02-24T04:09:19.990Z,100085.81
2023-02-24T04:13:35.112Z,100086.06
2023-02-24T04:18:01.026Z,100086.19
2023-02-24T04:22:10.601Z,100085.31
2023-02-24T04:26:16.250Z,100084.00
2023-02-24T04:30:20.215Z,100078.22
2023-02-24T04:34:21.743Z,100077.25
2023-02-24T04:38:24.387Z,100067.88
2023-02-24T04:42:26.515Z,100063.66
2023-02-24T04:46:29.766Z,100049.91
2023-02-24T04:50:34.747Z,100049.84
2023-02-24T04:54:36.319Z,100040.34
2023-02-24T04:58:39.914Z,100041.28
2023-02-24T05:02:41.405Z,100028.63
2023-02-24T05:06:44.465Z,100023.72
2023-02-24T05:10:47.094Z,100007.63
2023-02-24T05:14:49.427Z,100010.16
2023-02-24T05:19:11.203Z,100004.84
2023-02-24T05:23:12.847Z,99995.41
2023-02-24T05:27:17.155Z,99991.94
2023-02-24T05:31:26.452Z,99989.44
2023-02-24T05:35:28.412Z,99970.50
2023-02-24T05:39:29.954Z,99966.31
2023-02-24T05:43:31.475Z,99967.09
2023-02-24T05:47:32.998Z,99962.03
2023-02-24T05:51:36.504Z,99955.34
2023-02-24T05:55:38.006Z,99958.66
2023-02-24T05:59:43.240Z,99946.63
2023-02-24T06:03:49.220Z,99945.03
2023-02-24T06:07:56.661Z,99941.78
2023-02-24T06:11:58.573Z,99939.34
2023-02-24T06:16:00.718Z,99941.97
2023-02-24T06:20:13.051Z,99933.25
2023-02-24T06:24:18.534Z,99932.28
2023-02-24T06:28:20.110Z,99928.94
2023-02-24T06:32:24.355Z,99932.25
2023-02-24T06:36:26.154Z,99939.75
2023-02-24T06:40:27.742Z,99941.94
2023-02-24T06:44:30.750Z,99934.16
2023-02-24T06:48:33.871Z,99945.41
2023-02-24T06:52:36.350Z,99941.41
2023-02-24T06:56:39.030Z,99946.75
2023-02-24T07:00:40.625Z,99951.84
2023-02-24T07:04:44.741Z,99953.44
2023-02-24T07:08:47.838Z,99945.72
2023-02-24T07:12:51.044Z,99943.72
2023-02-24T07:16:58.025Z,99942.09
2023-02-24T07:21:04.990Z,99944.09
2023-02-24T07:25:07.203Z,99948.53
2023-02-24T07:29:11.353Z,99937.06
2023-02-24T07:33:14.236Z,99939.84
2023-02-24T07:37:16.682Z,99935.78
2023-02-24T07:41:22.529Z,99933.38
2023-02-24T07:45:24.811Z,99933.59
2023-02-24T07:49:29.908Z,99919.13
2023-02-24T07:53:31.507Z,99920.22
2023-02-24T07:57:33.317Z,99922.13
2023-02-24T08:01:40.598Z,99935.00
2023-02-24T08:05:43.663Z,99928.31
2023-02-24T08:09:45.462Z,99924.16
2023-02-24T08:13:47.089Z,99918.19
2023-02-24T08:17:48.662Z,99909.72
2023-02-24T08:21:52.785Z,99904.53
2023-02-24T08:25:54.402Z,99904.28
2023-02-24T08:29:59.979Z,99903.31
2023-02-24T08:34:01.646Z,99901.66
2023-02-24T08:38:09.937Z,99899.88
2023-02-24T08:42:14.235Z,99898.47
2023-02-24T08:46:25.617Z,99892.13
2023-02-24T08:50:31.163Z,99860.94
2023-02-24T08:54:33.205Z,99875.69
2023-02-24T08:58:39.718Z,99866.13
2023-02-24T09:02:42.520Z,99854.66
2023-02-24T09:06:50.312Z,99863.84
2023-02-24T09:10:52.818Z,99852.31
2023-02-24T09:15:04.599Z,99852.66
2023-02-24T09:19:24.413Z,99841.75
2023-02-24T09:23:45.827Z,99845.19
2023-02-24T09:27:52.554Z,99823.94
2023-02-24T09:32:04.420Z,99829.13
2023-02-24T09:36:20.345Z,99829.06
2023-02-24T09:40:22.193Z,99820.31
2023-02-24T09:44:29.516Z,99823.63
2023-02-24T09:48:47.738Z,99818.34
2023-02-24T09:53:02.849Z,99820.63
2023-02-24T09:57:19.238Z,99811.84
2023-02-24T10:01:42.899Z,99808.09
2023-02-24T10:06:12.247Z,99829.25
2023-02-24T10:10:19.667Z,99791.44
2023-02-24T10:14:52.981Z,99787.59
2023-02-24T10:19:16.577Z,99779.88
2023-02-24T10:23:32.938Z,99769.91
2023-02-24T10:27:45.770Z,99770.09
2023-02-24T10:31:57.767Z,99769.28
2023-02-24T10:36:12.770Z,99766.81
2023-02-24T10:40:26.216Z,99754.78
2023-02-24T10:44:36.477Z,99744.44
2023-02-24T10:48:42.426Z,99743.59
2023-02-24T10:53:11.177Z,99739.38
2023-02-24T10:57:36.326Z,99726.69
2023-02-24T11:01:43.029Z,99715.78
2023-02-24T11:06:18.705Z,99711.69
2023-02-24T11:10:26.137Z,99696.13
2023-02-24T11:14:46.561Z,99677.53
2023-02-24T11:18:50.121Z,99674.03
2023-02-24T11:22:55.713Z,99672.56
2023-02-24T11:26:57.599Z,99654.50
2023-02-24T11:31:36.870Z,99642.41
2023-02-24T11:36:00.635Z,99633.66
2023-02-24T11:40:38.826Z,99627.53
2023-02-24T11:44:52.610Z,99615.66
2023-02-24T11:48:58.478Z,99608.72
2023-02-24T11:53:04.882Z,99594.38
2023-02-24T11:57:13.821Z,99588.41
2023-02-24T12:01:24.279Z,99576.59
2023-02-24T12:05:50.083Z,99554.47
2023-02-24T12:10:15.565Z,99549.38
2023-02-24T12:14:30.154Z,99544.84
2023-02-24T12:18:35.655Z,99551.50
2023-02-24T12:22:50.530Z,99536.91
2023-02-24T12:27:25.522Z,99527.16
2023-02-24T12:32:05.900Z,99524.41
2023-02-24T12:36:45.377Z,99501.25
2023-02-24T12:41:24.385Z,99499.59
2023-02-24T12:46:24.272Z,99493.69
2023-02-24T12:50:47.079Z,99483.56
2023-02-24T12:55:00.810Z,99474.41
2023-02-24T12:59:06.273Z,99468.28
2023-02-24T13:03:13.217Z,99464.66
2023-02-24T13:07:38.650Z,99444.88
2023-02-24T13:11:58.804Z,99438.75
2023-02-24T13:16:39.180Z,99431.13
2023-02-24T13:20:51.152Z,99431.75
2023-02-24T13:25:10.342Z,99425.84
2023-02-24T13:29:21.607Z,99416.00
2023-02-24T13:33:32.209Z,99400.91
2023-02-24T13:37:48.507Z,99393.31
2023-02-24T13:42:04.658Z,99374.41
2023-02-24T13:46:32.366Z,99367.50
2023-02-24T13:50:54.487Z,99369.16
2023-02-24T13:55:23.523Z,99355.50
2023-02-24T13:59:47.215Z,99355.41
2023-02-24T14:04:17.297Z,99353.69
2023-02-24T14:08:31.994Z,99346.91
2023-02-24T14:12:42.704Z,99345.25
2023-02-24T14:16:52.505Z,99353.03
2023-02-24T14:20:58.410Z,99341.94
2023-02-24T14:25:10.049Z,99339.38
2023-02-24T14:29:17.749Z,99334.19
2023-02-24T14:33:29.181Z,99328.09
2023-02-24T14:37:31.770Z,99324.66
2023-02-24T14:41:37.023Z,99315.06
2023-02-24T14:45:49.271Z,99318.44
2023-02-24T14:50:04.938Z,99308.03
2023-02-24T14:54:30.892Z,99302.19
2023-02-24T14:58:48.113Z,99299.59
2023-02-24T15:03:19.894Z,99303.84
2023-02-24T15:07:32.301Z,99284.88
2023-02-24T15:11:40.275Z,99286.59
2023-02-24T15:15:42.765Z,99284.81
2023-02-24T15:19:47.258Z,99281.31
2023-02-24T15:24:01.432Z,99275.31
2023-02-24T15:28:04.465Z,99267.63
2023-02-24T15:32:15.730Z,99260.66
2023-02-24T15:36:28.616Z,99257.06
2023-02-24T15:40:33.179Z,99257.78
2023-02-24T15:44:36.500Z,99261.06
2023-02-24T15:48:43.510Z,99257.50
2023-02-24T15:52:50.881Z,99257.38
2023-02-24T15:56:55.738Z,99246.03
2023-02-24T16:01:03.215Z,99248.53
2023-02-24T16:05:08.467Z,99251.78
2023-02-24T16:09:16.128Z,99259.41
2023-02-24T16:13:23.104Z,99256.69
2023-02-24T16:17:34.829Z,99270.34
2023-02-24T16:21:39.876Z,99264.19
2023-02-24T16:25:44.536Z,99260.69
2023-02-24T16:29:55.893Z,99260.56
2023-02-24T16:34:00.258Z,99250.94
2023-02-24T16:38:05.606Z,99256.81
2023-02-24T16:42:11.178Z,99254.19
2023-02-24T16:46:19.384Z,99256.72
2023-02-24T16:50:27.573Z,99257.50
2023-02-24T16:54:30.857Z,99258.22
2023-02-24T16:58:32.952Z,99263.22
2023-02-24T17:02:35.128Z,99268.22
2023-02-24T17:06:49.816Z,99273.25
2023-02-24T17:10:54.331Z,99274.94
2023-02-24T17:14:58.619Z,99273.22
2023-02-24T17:19:00.640Z,99271.41
2023-02-24T17:23:12.758Z,99277.34
2023-02-24T17:27:14.324Z,99286.69
2023-02-24T17:31:15.911Z,99290.91
2023-02-24T17:35:18.339Z,99286.59
2023-02-24T17:39:19.895Z,99291.72
2023-02-24T17:43:21.571Z,99288.25
2023-02-24T17:47:23.146Z,99284.97
2023-02-24T17:51:24.731Z,99293.56
2023-02-24T17:55:26.409Z,99292.81
2023-02-24T17:59:28.089Z,99292.84
2023-02-24T18:03:30.366Z,99294.63
2023-02-24T18:07:32.125Z,99297.25
2023-02-24T18:11:33.749Z,99304.84
2023-02-24T18:15:38.495Z,99306.38
2023-02-24T18:19:40.454Z,99310.59
2023-02-24T18:23:42.317Z,99305.38
2023-02-24T18:27:43.922Z,99320.59
2023-02-24T18:31:45.705Z,99322.97
2023-02-24T18:35:47.397Z,99315.94
2023-02-24T18:39:48.956Z,99318.34
2023-02-24T18:43:53.176Z,99318.34
2023-02-24T18:47:54.765Z,99321.72
2023-02-24T18:51:56.424Z,99326.72
2023-02-24T18:56:05.206Z,99325.72
2023-02-24T19:00:08.528Z,99328.16
2023-02-24T19:04:11.842Z,99333.13
2023-02-24T19:08:14.639Z,99340.63
2023-02-24T19:12:17.311Z,99345.69
2023-02-24T19:16:19.094Z,99353.31
2023-02-24T19:20:21.029Z,99362.50
2023-02-24T19:24:22.580Z,99368.03
2023-02-24T19:28:24.243Z,99370.53
2023-02-24T19:32:25.932Z,99377.97
2023-02-24T19:36:29.180Z,99380.19
2023-02-24T19:40:30.693Z,99382.53
2023-02-24T19:44:33.166Z,99381.47
2023-02-24T19:48:35.269Z,99376.81
2023-02-24T19:52:36.925Z,99389.31
2023-02-24T19:56:38.428Z,99400.22
2023-02-24T20:00:39.986Z,99418.13
2023-02-24T20:04:41.621Z,99424.53
2023-02-24T20:08:43.298Z,99441.38
2023-02-24T20:12:45.002Z,99455.59
2023-02-24T20:16:47.259Z,99451.00
2023-02-24T20:20:48.916Z,99452.22
2023-02-24T20:24:50.559Z,99452.03
2023-02-24T20:28:52.218Z,99450.81
2023-02-24T20:32:53.909Z,99450.16
2023-02-24T20:36:55.762Z,99448.72
2023-02-24T20:41:00.246Z,99443.34
2023-02-24T20:45:02.465Z,99443.94
2023-02-24T20:49:06.959Z,99439.88
2023-02-24T20:53:08.550Z,99440.66
2023-02-24T20:57:10.188Z,99434.88
2023-02-24T21:01:11.948Z,99436.66
2023-02-24T21:05:22.466Z,99437.78
2023-02-24T21:09:24.029Z,99440.81
2023-02-24T21:13:25.761Z,99447.69
2023-02-24T21:17:28.728Z,99443.06
2023-02-24T21:21:31.255Z,99441.63
2023-02-24T21:25:32.822Z,99439.94
2023-02-24T21:29:34.512Z,99432.28
2023-02-24T21:33:36.162Z,99434.81
2023-02-24T21:37:37.812Z,99436.44
2023-02-24T21:41:39.407Z,99433.97
2023-02-24T21:45:41.334Z,99432.00
2023-02-24T21:49:43.996Z,99436.88
2023-02-24T21:53:47.860Z,99432.81
2023-02-24T21:57:49.460Z,99443.00
2023-02-24T22:01:51.240Z,99440.13
2023-02-24T22:05:54.310Z,99444.13
2023-02-24T22:09:55.927Z,99437.19
2023-02-24T22:13:57.512Z,99438.78
2023-02-24T22:17:59.031Z,99435.19
2023-02-24T22:22:00.617Z,99436.81
2023-02-24T22:26:07.113Z,99427.34
2023-02-24T22:30:10.443Z,99434.03
2023-02-24T22:34:13.128Z,99443.31
2023-02-24T22:38:14.788Z,99443.03
2023-02-24T22:42:16.389Z,99442.25
2023-02-24T22:46:21.961Z,99430.38
2023-02-24T22:50:23.682Z,99448.22
2023-02-24T22:54:25.254Z,99453.47
2023-02-24T22:58:27.494Z,99462.91
2023-02-24T23:02:29.016Z,99452.03
2023-02-24T23:06:31.006Z,99457.06
2023-02-24T23:10:33.916Z,99463.16
2023-02-24T23:14:36.023Z,99478.44
2023-02-24T23:18:38.093Z,99476.69
2023-02-24T23:22:40.538Z,99493.66
2023-02-24T23:26:51.803Z,99500.47
2023-02-24T23:30:54.483Z,99500.19
2023-02-24T23:34:56.170Z,99506.69
2023-02-24T23:38:57.908Z,99505.59
2023-02-24T23:43:00.243Z,99512.88
2023-02-24T23:47:01.842Z,99513.13
2023-02-24T23:51:04.667Z,99519.56
2023-02-24T23:55:06.808Z,99523.16
2023-02-24T23:59:08.776Z,99519.16
